createdAt,value
2023-07-03T00:01:36.230Z,7.87
2023-07-03T00:04:05.682Z,7.70
2023-07-03T00:06:33.039Z,7.80
2023-07-03T00:09:02.048Z,7.70
2023-07-03T00:11:33.972Z,8.00
2023-07-03T00:14:00.992Z,8.07
2023-07-03T00:16:31.182Z,8.07
2023-07-03T00:19:00.925Z,7.87
2023-07-03T00:21:28.025Z,7.73
2023-07-03T00:23:59.927Z,7.97
2023-07-03T00:26:29.724Z,7.40
2023-07-03T00:28:56.638Z,8.40
2023-07-03T00:31:23.574Z,7.67
2023-07-03T00:33:52.148Z,7.93
2023-07-03T00:36:20.454Z,8.03
2023-07-03T00:38:51.413Z,8.80
2023-07-03T00:41:19.653Z,8.57
2023-07-03T00:43:49.453Z,7.90
2023-07-03T00:46:16.791Z,8.83
2023-07-03T00:48:47.496Z,8.17
2023-07-03T00:51:16.908Z,8.13
2023-07-03T00:53:45.275Z,8.43
2023-07-03T00:56:15.243Z,8.73
2023-07-03T00:58:44.459Z,8.33
2023-07-03T01:01:17.249Z,8.40
2023-07-03T01:03:53.736Z,8.13
2023-07-03T01:06:25.299Z,8.20
2023-07-03T01:08:59.515Z,8.43
2023-07-03T01:11:29.752Z,8.17
2023-07-03T01:14:00.244Z,8.00
2023-07-03T01:16:32.644Z,7.97
2023-07-03T01:19:02.503Z,8.37
2023-07-03T01:21:48.402Z,8.47
2023-07-03T01:24:30.650Z,7.90
2023-07-03T01:27:02.731Z,8.33
2023-07-03T01:29:32.401Z,8.27
2023-07-03T01:31:59.732Z,8.17
2023-07-03T01:34:29.874Z,8.40
2023-07-03T01:37:02.027Z,8.13
2023-07-03T01:39:32.675Z,8.83
2023-07-03T01:42:01.585Z,8.97
2023-07-03T01:44:29.429Z,8.47
2023-07-03T01:47:11.135Z,8.30
2023-07-03T01:49:42.223Z,8.80
2023-07-03T01:52:29.917Z,8.67
2023-07-03T01:55:06.108Z,9.07
2023-07-03T01:58:00.019Z,8.67
2023-07-03T02:00:59.080Z,9.07
2023-07-03T02:03:34.553Z,8.60
2023-07-03T02:06:25.307Z,8.40
2023-07-03T02:08:54.189Z,8.47
2023-07-03T02:11:28.759Z,8.50
2023-07-03T02:14:04.015Z,8.73
2023-07-03T02:16:33.533Z,9.00
2023-07-03T02:19:02.446Z,8.43
2023-07-03T02:21:30.769Z,8.67
2023-07-03T02:23:58.968Z,9.50
2023-07-03T02:26:25.882Z,8.60
2023-07-03T02:28:55.918Z,9.17
2023-07-03T02:31:22.943Z,8.80
2023-07-03T02:33:55.245Z,8.83
2023-07-03T02:36:28.661Z,8.40
2023-07-03T02:38:55.620Z,8.87
2023-07-03T02:41:28.412Z,8.73
2023-07-03T02:43:56.899Z,8.97
2023-07-03T02:46:26.549Z,8.60
2023-07-03T02:48:55.261Z,8.83
2023-07-03T02:54:07.265Z,8.87
2023-07-03T02:56:34.347Z,9.30
2023-07-03T02:59:01.828Z,8.90
2023-07-03T03:01:32.826Z,8.60
2023-07-03T03:04:00.920Z,8.80
2023-07-03T03:06:28.072Z,8.77
2023-07-03T03:08:55.738Z,9.07
2023-07-03T03:11:22.935Z,9.27
2023-07-03T03:13:56.573Z,9.07
2023-07-03T03:16:24.766Z,9.00
2023-07-03T03:18:51.740Z,8.87
2023-07-03T03:21:21.206Z,9.07
2023-07-03T03:23:49.518Z,8.87
2023-07-03T03:26:16.843Z,8.97
2023-07-03T03:28:43.810Z,8.70
2023-07-03T03:31:12.663Z,8.87
2023-07-03T03:33:48.314Z,8.60
2023-07-03T03:36:15.372Z,8.90
2023-07-03T03:38:43.826Z,9.40
2023-07-03T03:41:11.029Z,9.00
2023-07-03T03:43:40.609Z,9.20
2023-07-03T03:46:11.064Z,8.97
2023-07-03T03:48:38.844Z,8.83
2023-07-03T03:51:09.312Z,8.93
2023-07-03T03:53:41.858Z,9.67
2023-07-03T03:56:09.385Z,9.17
2023-07-03T03:58:39.234Z,9.60
2023-07-03T04:01:06.091Z,8.93
2023-07-03T04:03:33.851Z,9.03
2023-07-03T04:06:01.939Z,9.00
2023-07-03T04:08:28.820Z,9.53
2023-07-03T04:10:59.665Z,8.93
2023-07-03T04:13:28.285Z,9.73
2023-07-03T04:16:00.974Z,9.17
2023-07-03T04:18:33.036Z,9.67
2023-07-03T04:21:00.653Z,10.27
2023-07-03T04:23:27.968Z,10.30
2023-07-03T04:25:55.242Z,9.87
2023-07-03T04:28:23.410Z,9.53
2023-07-03T04:30:50.710Z,8.97
2023-07-03T04:33:17.732Z,9.40
2023-07-03T04:35:49.431Z,9.47
2023-07-03T04:38:26.555Z,8.97
2023-07-03T04:40:56.001Z,9.70
2023-07-03T04:43:24.096Z,9.27
2023-07-03T04:45:53.455Z,9.03
2023-07-03T04:48:21.995Z,9.03
2023-07-03T04:50:51.037Z,9.53
2023-07-03T04:53:22.083Z,9.30
2023-07-03T04:55:52.794Z,9.40
2023-07-03T04:58:20.597Z,9.20
2023-07-03T05:00:48.267Z,9.63
2023-07-03T05:03:15.959Z,9.23
2023-07-03T05:05:44.438Z,9.30
2023-07-03T05:08:12.686Z,9.10
2023-07-03T05:10:41.036Z,9.13
2023-07-03T05:13:08.438Z,9.10
2023-07-03T05:15:36.499Z,9.63
2023-07-03T05:18:03.582Z,9.80
2023-07-03T05:20:33.238Z,9.10
2023-07-03T05:23:00.216Z,9.40
2023-07-03T05:25:28.499Z,9.63
2023-07-03T05:27:59.084Z,8.60
2023-07-03T05:30:25.996Z,9.50
2023-07-03T05:32:53.410Z,9.43
2023-07-03T05:35:20.383Z,9.13
2023-07-03T05:37:48.339Z,8.70
2023-07-03T05:40:16.451Z,9.07
2023-07-03T05:42:44.286Z,9.10
2023-07-03T05:45:12.811Z,8.97
2023-07-03T05:47:39.823Z,9.00
2023-07-03T05:50:16.173Z,9.40
2023-07-03T05:52:46.651Z,9.47
2023-07-03T05:55:13.885Z,9.30
2023-07-03T05:57:41.581Z,8.70
2023-07-03T06:00:16.279Z,9.00
2023-07-03T06:02:54.373Z,9.60
2023-07-03T06:05:23.147Z,8.97
2023-07-03T06:07:50.302Z,8.77
2023-07-03T06:10:20.985Z,9.00
2023-07-03T06:12:52.873Z,8.80
2023-07-03T06:15:20.125Z,9.20
2023-07-03T06:17:50.173Z,8.77
2023-07-03T06:20:17.648Z,9.07
2023-07-03T06:22:46.151Z,9.40
2023-07-03T06:25:13.380Z,9.17
2023-07-03T06:27:40.552Z,8.70
2023-07-03T06:30:08.741Z,8.87
2023-07-03T06:32:37.604Z,8.90
2023-07-03T06:35:06.818Z,9.17
2023-07-03T06:37:35.442Z,8.80
2023-07-03T06:40:13.117Z,8.23
2023-07-03T06:42:43.312Z,8.30
2023-07-03T06:45:19.562Z,8.60
2023-07-03T06:47:46.889Z,9.30
2023-07-03T06:50:13.751Z,8.90
2023-07-03T06:52:43.734Z,9.07
2023-07-03T06:55:15.565Z,9.10
2023-07-03T06:57:43.576Z,8.63
2023-07-03T07:00:11.067Z,9.43
2023-07-03T07:02:38.119Z,9.37
2023-07-03T07:05:05.469Z,9.37
2023-07-03T07:07:33.355Z,9.47
2023-07-03T07:10:04.102Z,9.00
2023-07-03T07:12:32.473Z,9.70
2023-07-03T07:14:59.395Z,9.60
2023-07-03T07:17:46.332Z,9.83
2023-07-03T07:20:25.538Z,8.60
2023-07-03T07:22:54.488Z,9.03
2023-07-03T07:25:21.463Z,10.17
2023-07-03T07:27:51.416Z,9.03
2023-07-03T07:30:19.483Z,9.63
2023-07-03T07:32:49.923Z,9.33
2023-07-03T07:35:20.431Z,9.40
2023-07-03T07:37:47.836Z,9.60
2023-07-03T07:40:14.740Z,9.33
2023-07-03T07:42:48.319Z,8.63
2023-07-03T07:45:18.283Z,9.57
2023-07-03T07:47:48.004Z,9.80
2023-07-03T07:50:17.905Z,9.90
2023-07-03T07:52:45.046Z,10.17
2023-07-03T07:55:13.275Z,10.60
2023-07-03T07:57:43.116Z,9.73
2023-07-03T08:00:15.009Z,10.60
2023-07-03T08:02:44.203Z,10.30
2023-07-03T08:05:15.853Z,10.17
2023-07-03T08:07:50.248Z,10.27
2023-07-03T08:10:20.273Z,10.13
2023-07-03T08:12:48.669Z,10.43
2023-07-03T08:15:15.642Z,10.80
2023-07-03T08:17:42.681Z,10.63
2023-07-03T08:20:13.194Z,10.50
2023-07-03T08:22:42.509Z,10.20
2023-07-03T08:25:15.300Z,9.60
2023-07-03T08:27:47.977Z,10.40
2023-07-03T08:30:17.312Z,10.03
2023-07-03T08:38:11.526Z,11.67
2023-07-03T08:40:40.911Z,11.40
2023-07-03T08:43:18.133Z,10.80
2023-07-03T08:45:50.557Z,11.40
2023-07-03T08:48:24.477Z,12.03
2023-07-03T08:50:58.520Z,11.37
2023-07-03T08:53:34.236Z,11.03
2023-07-03T08:56:09.576Z,11.60
2023-07-03T08:58:40.701Z,11.30
2023-07-03T09:01:10.098Z,10.80
2023-07-03T09:04:03.444Z,11.40
2023-07-03T09:06:54.809Z,11.23
2023-07-03T09:09:39.303Z,10.77
2023-07-03T09:12:31.094Z,10.43
2023-07-03T09:15:10.549Z,10.70
2023-07-03T09:17:40.786Z,10.87
2023-07-03T09:20:15.806Z,10.97
2023-07-03T09:22:55.824Z,11.03
2023-07-03T09:25:45.631Z,11.00
2023-07-03T09:28:21.304Z,10.83
2023-07-03T09:30:51.045Z,11.03
2023-07-03T09:33:18.711Z,10.93
2023-07-03T09:35:49.168Z,10.70
2023-07-03T09:38:22.898Z,10.43
2023-07-03T09:40:59.743Z,10.80
2023-07-03T09:43:29.313Z,11.03
2023-07-03T09:46:11.197Z,10.17
2023-07-03T09:48:39.834Z,10.60
2023-07-03T09:51:20.732Z,10.97
2023-07-03T09:53:55.282Z,10.80
2023-07-03T09:56:29.081Z,10.83
2023-07-03T09:59:05.162Z,10.60
2023-07-03T10:07:11.492Z,10.03
2023-07-03T10:12:33.463Z,10.93
2023-07-03T10:15:24.342Z,10.43
2023-07-03T10:18:01.861Z,9.83
2023-07-03T10:20:36.160Z,9.27
2023-07-03T10:23:08.541Z,10.20
2023-07-03T10:25:49.073Z,10.20
2023-07-03T10:28:26.433Z,9.97
2023-07-03T10:31:00.028Z,9.70
2023-07-03T10:33:37.449Z,10.20
2023-07-03T10:36:11.369Z,10.03
2023-07-03T10:38:47.772Z,10.40
2023-07-03T10:41:24.569Z,10.13
2023-07-03T10:43:59.785Z,9.60
2023-07-03T10:46:42.283Z,9.93
2023-07-03T10:49:18.328Z,9.73
2023-07-03T10:52:11.277Z,9.70
2023-07-03T10:55:14.433Z,9.80
2023-07-03T10:58:03.086Z,9.93
2023-07-03T11:01:01.998Z,9.70
2023-07-03T11:04:22.339Z,9.63
2023-07-03T11:07:05.238Z,9.87
2023-07-03T11:09:42.676Z,10.07
2023-07-03T11:12:48.605Z,9.80
2023-07-03T11:15:30.465Z,10.57
2023-07-03T11:24:42.649Z,9.90
2023-07-03T11:30:12.705Z,10.23
2023-07-03T11:32:40.420Z,10.20
2023-07-03T11:40:40.341Z,10.20
2023-07-03T11:43:35.900Z,10.43
2023-07-03T11:46:09.281Z,10.87
2023-07-03T11:48:39.003Z,10.37
2023-07-03T11:51:12.416Z,10.30
2023-07-03T11:53:54.889Z,10.00
2023-07-03T11:56:37.718Z,10.23
2023-07-03T11:59:24.696Z,10.57
2023-07-03T12:02:20.316Z,10.60
2023-07-03T12:05:10.904Z,10.23
2023-07-03T12:07:43.964Z,9.63
2023-07-03T12:10:24.638Z,9.10
2023-07-03T12:13:28.679Z,10.00
2023-07-03T12:16:03.865Z,8.90
2023-07-03T12:18:34.091Z,9.37
2023-07-03T12:21:05.080Z,9.57
2023-07-03T12:23:43.051Z,8.53
2023-07-03T12:26:14.853Z,9.13
2023-07-03T12:28:45.800Z,8.67
2023-07-03T12:31:21.742Z,9.87
2023-07-03T12:33:53.106Z,9.30
2023-07-03T12:36:35.946Z,9.43
2023-07-03T12:39:14.454Z,9.20
2023-07-03T12:41:42.515Z,9.33
2023-07-03T12:44:12.051Z,9.33
2023-07-03T12:47:23.342Z,9.57
2023-07-03T12:50:01.799Z,9.47
2023-07-03T12:52:37.956Z,9.50
2023-07-03T12:55:14.617Z,8.60
2023-07-03T12:57:43.105Z,9.30
2023-07-03T13:00:21.124Z,9.17
2023-07-03T13:02:48.190Z,8.93
2023-07-03T13:05:22.508Z,9.70
2023-07-03T13:07:52.401Z,9.67
2023-07-03T13:10:20.739Z,9.07
2023-07-03T13:13:08.932Z,9.70
2023-07-03T13:15:43.652Z,9.63
2023-07-03T13:18:15.496Z,9.33
2023-07-03T13:20:53.956Z,9.50
2023-07-03T13:23:46.654Z,9.80
2023-07-03T13:26:27.146Z,9.63
2023-07-03T13:28:59.647Z,8.93
2023-07-03T13:31:50.848Z,9.13
2023-07-03T13:34:22.126Z,9.90
2023-07-03T13:37:06.824Z,9.17
2023-07-03T13:39:36.843Z,9.03
2023-07-03T13:42:12.261Z,9.57
2023-07-03T13:44:40.218Z,9.57
2023-07-03T13:47:07.601Z,9.67
2023-07-03T13:49:34.789Z,9.93
2023-07-03T13:52:02.208Z,9.17
2023-07-03T13:54:31.782Z,9.23
2023-07-03T13:57:01.401Z,9.77
2023-07-03T13:59:31.353Z,10.23
2023-07-03T14:01:59.010Z,9.77
2023-07-03T14:04:28.527Z,9.77
2023-07-03T14:06:55.678Z,9.97
2023-07-03T14:09:25.890Z,9.60
2023-07-03T14:11:56.926Z,9.53
2023-07-03T14:14:35.717Z,9.50
2023-07-03T14:17:08.126Z,9.23
2023-07-03T14:19:35.280Z,9.40
2023-07-03T14:22:03.636Z,9.47
2023-07-03T14:24:31.909Z,9.70
2023-07-03T14:27:01.361Z,9.90
2023-07-03T14:29:31.594Z,9.60
2023-07-03T14:32:02.050Z,9.30
2023-07-03T14:34:29.325Z,10.30
2023-07-03T14:36:57.278Z,9.73
2023-07-03T14:39:25.312Z,9.80
2023-07-03T14:41:54.435Z,10.03
2023-07-03T14:44:24.137Z,9.37
2023-07-03T14:46:51.360Z,10.10
2023-07-03T14:49:19.542Z,10.47
2023-07-03T14:51:46.625Z,9.70
2023-07-03T14:54:17.227Z,10.03
2023-07-03T14:56:49.294Z,9.60
2023-07-03T14:59:18.194Z,10.00
2023-07-03T15:01:45.662Z,9.57
2023-07-03T15:04:13.366Z,10.10
2023-07-03T15:06:43.384Z,9.90
2023-07-03T15:09:12.096Z,9.67
2023-07-03T15:11:38.982Z,9.73
2023-07-03T15:14:12.345Z,9.47
2023-07-03T15:16:43.424Z,10.17
2023-07-03T15:19:15.667Z,10.00
2023-07-03T15:21:43.642Z,9.60
2023-07-03T15:24:11.701Z,10.20
2023-07-03T15:26:41.864Z,10.40
2023-07-03T15:29:11.127Z,10.10
2023-07-03T15:31:44.262Z,10.03
2023-07-03T15:34:14.105Z,10.00
2023-07-03T15:36:41.464Z,10.37
2023-07-03T15:39:08.849Z,10.67
2023-07-03T15:41:39.101Z,10.03
2023-07-03T15:44:06.101Z,9.73
2023-07-03T15:46:35.476Z,9.73
2023-07-03T15:49:02.475Z,10.00
2023-07-03T15:51:33.035Z,9.53
2023-07-03T15:54:02.326Z,10.77
2023-07-03T15:56:31.876Z,9.43
2023-07-03T15:59:04.134Z,10.47
2023-07-03T16:01:34.334Z,10.00
2023-07-03T16:04:05.104Z,10.30
2023-07-03T16:06:37.640Z,10.60
2023-07-03T16:09:07.746Z,9.70
2023-07-03T16:11:38.360Z,10.30
2023-07-03T16:14:05.773Z,10.43
2023-07-03T16:16:32.812Z,9.70
2023-07-03T16:19:02.244Z,10.23
2023-07-03T16:21:32.522Z,10.33
2023-07-03T16:24:01.889Z,10.37
2023-07-03T16:26:32.489Z,10.33
2023-07-03T16:28:59.672Z,9.87
2023-07-03T16:31:29.035Z,10.57
2023-07-03T16:34:01.109Z,10.77
2023-07-03T16:36:30.652Z,10.50
2023-07-03T16:39:07.095Z,10.60
2023-07-03T16:41:41.628Z,10.27
2023-07-03T16:44:11.233Z,10.17
2023-07-03T16:46:45.423Z,10.10
2023-07-03T16:49:20.501Z,10.23
2023-07-03T16:51:48.592Z,10.43
2023-07-03T16:54:15.853Z,10.03
2023-07-03T16:56:44.582Z,10.53
2023-07-03T16:59:18.201Z,10.67
2023-07-03T17:01:49.847Z,10.57
2023-07-03T17:04:17.813Z,10.10
2023-07-03T17:06:45.726Z,9.83
2023-07-03T17:09:17.078Z,9.90
2023-07-03T17:11:46.978Z,9.90
2023-07-03T17:14:27.697Z,9.30
2023-07-03T17:16:56.767Z,9.80
2023-07-03T17:19:29.193Z,10.20
2023-07-03T17:22:03.121Z,9.67
2023-07-03T17:24:33.045Z,10.13
2023-07-03T17:27:01.347Z,9.93
2023-07-03T17:29:30.884Z,9.80
2023-07-03T17:32:00.690Z,9.87
2023-07-03T17:34:32.206Z,9.97
2023-07-03T17:37:04.826Z,10.10
2023-07-03T17:39:34.845Z,10.77
2023-07-03T17:42:03.640Z,10.70
2023-07-03T17:44:36.363Z,10.20
2023-07-03T17:47:09.522Z,10.07
2023-07-03T17:49:39.575Z,10.50
2023-07-03T17:52:08.704Z,9.93
2023-07-03T17:54:37.476Z,10.57
2023-07-03T17:57:09.021Z,10.60
2023-07-03T17:59:40.461Z,9.90
2023-07-03T18:02:16.664Z,9.90
2023-07-03T18:04:45.277Z,9.93
2023-07-03T18:07:17.847Z,10.20
2023-07-03T18:09:46.849Z,10.53
2023-07-03T18:12:28.027Z,9.67
2023-07-03T18:14:58.273Z,9.97
2023-07-03T18:17:27.944Z,9.90
2023-07-03T18:19:57.845Z,10.67
2023-07-03T18:22:29.065Z,10.40
2023-07-03T18:25:02.255Z,10.37
2023-07-03T18:27:37.490Z,10.53
2023-07-03T18:30:13.764Z,10.40
2023-07-03T18:32:45.492Z,10.13
2023-07-03T18:35:19.769Z,9.83
2023-07-03T18:37:50.472Z,10.07
2023-07-03T18:40:28.881Z,10.13
2023-07-03T18:42:59.052Z,10.13
2023-07-03T18:45:30.473Z,10.07
2023-07-03T18:48:04.543Z,10.57
2023-07-03T18:50:41.069Z,10.53
2023-07-03T18:53:12.270Z,10.70
2023-07-03T18:55:56.765Z,10.83
2023-07-03T18:58:26.853Z,11.17
2023-07-03T19:00:58.459Z,10.80
2023-07-03T19:03:38.691Z,10.33
2023-07-03T19:06:13.175Z,10.93
2023-07-03T19:08:50.044Z,11.50
2023-07-03T19:11:28.187Z,11.37
2023-07-03T19:14:01.808Z,10.90
2023-07-03T19:16:34.795Z,10.90
2023-07-03T19:19:13.304Z,11.23
2023-07-03T19:21:47.535Z,10.77
2023-07-03T19:24:19.073Z,10.87
2023-07-03T19:26:49.206Z,11.10
2023-07-03T19:29:19.014Z,10.70
2023-07-03T19:32:04.611Z,10.60
2023-07-03T19:34:41.554Z,11.23
2023-07-03T19:37:18.323Z,11.23
2023-07-03T19:39:50.226Z,10.60
2023-07-03T19:42:22.728Z,11.30
2023-07-03T19:44:52.954Z,11.03
2023-07-03T19:47:24.597Z,10.30
2023-07-03T19:50:03.341Z,11.17
2023-07-03T19:52:42.483Z,10.70
2023-07-03T19:55:14.810Z,11.33
2023-07-03T19:57:47.129Z,10.43
2023-07-03T20:00:16.199Z,11.07
2023-07-03T20:02:50.232Z,10.90
2023-07-03T20:05:22.466Z,10.77
2023-07-03T20:07:53.571Z,10.23
2023-07-03T20:10:24.274Z,10.93
2023-07-03T20:12:55.715Z,10.50
2023-07-03T20:15:25.556Z,11.37
2023-07-03T20:17:55.924Z,11.03
2023-07-03T20:20:24.975Z,11.20
2023-07-03T20:22:56.057Z,10.50
2023-07-03T20:25:25.075Z,10.67
2023-07-03T20:27:59.419Z,10.90
2023-07-03T20:30:32.335Z,11.73
2023-07-03T20:33:05.424Z,11.00
2023-07-03T20:35:38.126Z,10.97
2023-07-03T20:38:12.424Z,11.37
2023-07-03T20:40:55.730Z,10.90
2023-07-03T20:43:29.008Z,10.73
2023-07-03T20:46:12.516Z,11.27
2023-07-03T20:48:46.218Z,10.73
2023-07-03T20:51:22.569Z,11.00
2023-07-03T20:53:52.559Z,11.30
2023-07-03T20:56:28.216Z,11.67
2023-07-03T20:59:01.807Z,11.23
2023-07-03T21:01:34.258Z,11.10
2023-07-03T21:04:05.486Z,11.20
2023-07-03T21:06:36.076Z,10.50
2023-07-03T21:09:05.943Z,11.17
2023-07-03T21:11:40.509Z,10.73
2023-07-03T21:14:08.420Z,10.80
2023-07-03T21:16:37.342Z,10.77
2023-07-03T21:19:11.086Z,10.90
2023-07-03T21:21:38.974Z,11.30
2023-07-03T21:24:09.709Z,11.17
2023-07-03T21:26:37.348Z,11.70
2023-07-03T21:29:05.703Z,11.00
2023-07-03T21:31:38.360Z,11.60
2023-07-03T21:34:05.851Z,11.67
2023-07-03T21:36:33.799Z,10.83
2023-07-03T21:39:06.519Z,10.70
2023-07-03T21:41:36.307Z,11.53
2023-07-03T21:44:17.582Z,11.07
2023-07-03T21:46:45.069Z,11.17
2023-07-03T21:49:14.848Z,11.13
2023-07-03T21:51:43.194Z,10.43
2023-07-03T21:54:10.879Z,11.50
2023-07-03T21:56:39.607Z,11.40
2023-07-03T21:59:06.754Z,10.60
2023-07-03T22:01:40.728Z,10.77
2023-07-03T22:04:11.784Z,11.10
2023-07-03T22:06:43.601Z,10.80
2023-07-03T22:09:12.425Z,10.83
2023-07-03T22:11:42.894Z,11.30
2023-07-03T22:14:10.024Z,10.43
2023-07-03T22:16:38.238Z,11.20
2023-07-03T22:19:06.768Z,10.97
2023-07-03T22:21:33.677Z,11.23
2023-07-03T22:24:03.912Z,11.17
2023-07-03T22:26:31.216Z,11.73
2023-07-03T22:29:01.768Z,10.70
2023-07-03T22:31:28.746Z,11.03
2023-07-03T22:33:55.807Z,10.90
2023-07-03T22:36:22.716Z,11.00
2023-07-03T22:38:53.228Z,11.00
2023-07-03T22:41:23.403Z,11.70
2023-07-03T22:43:50.428Z,11.23
2023-07-03T22:46:17.406Z,10.93
2023-07-03T22:48:49.024Z,11.03
2023-07-03T22:51:19.296Z,11.77
2023-07-03T22:53:51.033Z,11.33
2023-07-03T22:56:19.348Z,11.30
2023-07-03T22:58:46.305Z,11.00
2023-07-03T23:01:13.774Z,10.90
2023-07-03T23:03:44.691Z,11.03
2023-07-03T23:06:15.655Z,10.83
2023-07-03T23:08:45.714Z,10.67
2023-07-03T23:11:13.561Z,10.97
2023-07-03T23:13:40.917Z,10.67
2023-07-03T23:16:12.179Z,11.13
2023-07-03T23:18:42.033Z,10.17
2023-07-03T23:21:18.961Z,10.00
2023-07-03T23:23:45.873Z,10.80
2023-07-03T23:26:18.449Z,10.87
2023-07-03T23:28:46.651Z,11.10
2023-07-03T23:31:18.479Z,10.13
2023-07-03T23:33:51.817Z,10.80
2023-07-03T23:36:21.417Z,11.43
2023-07-03T23:38:51.651Z,10.97
2023-07-03T23:41:21.559Z,10.77
2023-07-03T23:43:51.331Z,10.80
